Aviation Digital Data Service (ADDS)

Output produced by METARs form (0123 UTC 02 April 2015)
found at http://aviationweather.gov/adds/metars/
 
KVQQ 012341Z 0200/0224 08006KT P6SM SCT060 
     FM020900 06003KT 5SM BR SCT010 BKN200 
     FM021300 10008KT P6SM SCT040 BKN200